Time;durP1;ratioP1;P1;durP2;ratioP2;P2;SDS_P1;SDS_P2;PMS_P1;PMS_P2;Temp;Humidity;BMP_temperature;BMP_pressure;BME280_temperature;BME280_humidity;BME280_pressure;Samples;Min_cycle;Max_cycle;Signal;HPM_P1;HPM_P2
2023/11/15 00:02:14;;;;;;;1.75;1.20;;;;;;;8.04;95.51;97549.94;5067328;28;20058;-83
2023/11/15 00:04:40;;;;;;;1.50;1.35;;;;;;;8.06;94.68;97566.44;5078357;28;20035;-83
2023/11/15 00:07:06;;;;;;;3.08;1.27;;;;;;;8.00;95.34;97562.97;5082905;28;20115;-82
2023/11/15 00:09:32;;;;;;;1.85;1.45;;;;;;;8.00;95.63;97572.78;5079168;28;20038;-83
2023/11/15 00:11:57;;;;;;;1.98;1.60;;;;;;;7.85;95.34;97570.09;5076180;28;20032;-82
2023/11/15 00:14:23;;;;;;;2.30;1.67;;;;;;;8.03;95.28;97566.97;5089821;28;20111;-82
2023/11/15 00:16:48;;;;;;;2.40;1.38;;;;;;;7.93;95.46;97574.94;5081967;28;20031;-82
2023/11/15 00:19:14;;;;;;;6.40;1.92;;;;;;;7.97;95.31;97579.44;5066075;28;20035;-82
2023/11/15 00:21:40;;;;;;;1.77;1.30;;;;;;;7.87;95.33;97576.75;5077798;28;20039;-82
2023/11/15 00:24:06;;;;;;;1.50;1.40;;;;;;;7.87;95.13;97579.41;5075128;28;20031;-83
2023/11/15 00:26:32;;;;;;;1.58;1.48;;;;;;;7.92;95.41;97591.91;5067559;28;20145;-82
2023/11/15 00:28:57;;;;;;;1.55;1.42;;;;;;;8.02;95.51;97591.94;5077046;28;20115;-82
2023/11/15 00:31:23;;;;;;;3.75;1.52;;;;;;;7.95;95.31;97589.53;5074955;28;20036;-82
2023/11/15 00:33:49;;;;;;;3.88;2.45;;;;;;;7.97;95.54;97605.22;5067513;28;20024;-83
2023/11/15 00:36:19;;;;;;;3.47;1.73;;;;;;;7.88;95.74;97612.09;5075167;28;20025;-82
2023/11/15 00:38:45;;;;;;;3.50;1.98;;;;;;;7.99;95.66;97616.38;5092013;28;20086;-82
2023/11/15 00:41:11;;;;;;;2.28;1.90;;;;;;;7.86;95.95;97617.69;5080571;28;20024;-83
2023/11/15 00:43:36;;;;;;;2.38;1.90;;;;;;;7.94;96.09;97622.47;5078041;28;20028;-83
2023/11/15 00:46:02;;;;;;;2.53;1.65;;;;;;;7.82;95.68;97629.84;5049643;28;20146;-83
2023/11/15 00:48:27;;;;;;;3.13;1.92;;;;;;;7.94;95.77;97645.59;5064344;28;20040;-82
2023/11/15 00:50:52;;;;;;;5.53;2.35;;;;;;;7.85;96.94;97645.28;5080570;28;20101;-82
2023/11/15 00:53:18;;;;;;;4.82;2.40;;;;;;;7.91;96.27;97648.75;5083030;28;20157;-82
2023/11/15 00:55:43;;;;;;;2.63;2.35;;;;;;;8.00;95.57;97652.50;5067204;28;20036;-82
2023/11/15 00:58:09;;;;;;;4.30;2.45;;;;;;;7.92;95.65;97663.63;5080415;28;20028;-81
2023/11/15 01:00:44;;;;;;;4.32;2.33;;;;;;;7.99;95.62;97662.34;5082846;28;20058;-83
2023/11/15 01:03:10;;;;;;;3.15;2.50;;;;;;;7.92;95.77;97668.94;5081298;28;20154;-82
2023/11/15 01:05:35;;;;;;;3.50;2.35;;;;;;;7.97;95.74;97687.59;5074732;28;20502;-82
2023/11/15 01:08:04;;;;;;;8.50;3.03;;;;;;;7.97;95.90;97680.38;5069386;28;20029;-82
2023/11/15 01:10:31;;;;;;;6.78;3.70;;;;;;;7.90;96.24;97689.66;5079930;28;20060;-82
2023/11/15 01:12:57;;;;;;;8.65;3.30;;;;;;;7.91;96.19;97697.38;5081461;28;20499;-82
2023/11/15 01:15:24;;;;;;;7.35;4.90;;;;;;;8.03;96.33;97715.75;5070050;28;20344;-82
2023/11/15 01:17:50;;;;;;;7.47;3.45;;;;;;;8.04;95.96;97706.72;5090367;28;20032;-82
2023/11/15 01:20:16;;;;;;;5.57;3.60;;;;;;;7.93;95.46;97721.81;5072683;28;20089;-82
2023/11/15 01:22:41;;;;;;;5.88;3.20;;;;;;;7.98;96.30;97731.66;5080719;28;20040;-82
2023/11/15 01:25:07;;;;;;;10.65;4.75;;;;;;;7.99;95.66;97725.31;5075840;28;20032;-82
2023/11/15 01:27:32;;;;;;;7.40;3.70;;;;;;;8.10;95.15;97734.94;5079023;28;20149;-82
2023/11/15 01:29:57;;;;;;;13.15;3.90;;;;;;;7.96;95.90;97721.31;5082934;28;20035;-83
2023/11/15 01:32:23;;;;;;;7.38;4.63;;;;;;;8.09;95.46;97743.94;5083967;28;20036;-82
2023/11/15 01:34:48;;;;;;;6.85;4.10;;;;;;;8.03;95.68;97752.97;5080983;28;20039;-82
2023/11/15 01:37:14;;;;;;;11.82;4.53;;;;;;;8.02;96.20;97756.66;5081200;28;20032;-82
2023/11/15 01:39:39;;;;;;;11.13;4.05;;;;;;;7.97;95.51;97749.47;5082761;28;20024;-82
2023/11/15 01:42:05;;;;;;;19.13;4.47;;;;;;;8.00;95.97;97761.44;5096936;28;20527;-83
2023/11/15 01:44:31;;;;;;;9.90;4.13;;;;;;;8.00;95.99;97764.09;5078245;28;20027;-82
2023/11/15 01:46:57;;;;;;;3.97;3.25;;;;;;;7.92;97.24;97770.72;5078882;28;20043;-82
2023/11/15 01:49:23;;;;;;;9.55;4.20;;;;;;;8.12;96.41;97776.13;5072866;28;20039;-82
2023/11/15 01:51:50;;;;;;;5.07;3.90;;;;;;;8.01;95.78;97782.47;5083795;28;20531;-82
2023/11/15 01:54:18;;;;;;;8.95;3.70;;;;;;;8.07;96.17;97780.63;5084797;28;20024;-82
2023/11/15 01:56:43;;;;;;;6.07;3.78;;;;;;;7.97;96.28;97772.59;5080273;28;20055;-82
2023/11/15 01:59:09;;;;;;;5.50;3.53;;;;;;;8.07;96.25;97785.94;5082997;28;20487;-83
2023/11/15 02:01:35;;;;;;;7.25;4.00;;;;;;;8.11;95.46;97787.00;5079354;28;20028;-82
2023/11/15 02:04:01;;;;;;;12.50;4.30;;;;;;;7.97;96.10;97780.56;5079941;28;20025;-82
2023/11/15 02:06:30;;;;;;;11.15;4.00;;;;;;;7.96;96.70;97800.22;5099820;27;20051;-83
2023/11/15 02:08:58;;;;;;;11.23;3.88;;;;;;;8.09;96.70;97810.38;5075642;28;20024;-83
2023/11/15 02:11:24;;;;;;;9.85;4.15;;;;;;;8.02;96.75;97794.66;5076646;28;20455;-83
2023/11/15 02:13:52;;;;;;;8.55;5.28;;;;;;;8.14;96.45;97797.94;5074152;28;20123;-84
2023/11/15 02:16:17;;;;;;;9.77;4.45;;;;;;;7.93;96.10;97790.13;5073643;28;20055;-83
2023/11/15 02:18:43;;;;;;;6.25;4.43;;;;;;;8.05;96.87;97812.75;5075592;28;20130;-83
2023/11/15 02:21:09;;;;;;;7.65;4.47;;;;;;;8.17;96.39;97815.19;5070932;28;20032;-83
2023/11/15 02:23:45;;;;;;;8.70;4.13;;;;;;;8.14;96.50;97821.06;5084624;28;20024;-82
2023/11/15 02:26:11;;;;;;;8.13;4.10;;;;;;;8.08;96.93;97814.13;5081889;28;20074;-82
2023/11/15 02:28:37;;;;;;;8.52;4.80;;;;;;;8.12;96.37;97813.34;5084775;28;20073;-83
2023/11/15 02:31:03;;;;;;;5.10;4.15;;;;;;;8.06;95.97;97810.91;5061550;28;20470;-82
2023/11/15 02:33:29;;;;;;;8.80;3.58;;;;;;;8.09;96.41;97824.47;5067242;28;20028;-82
2023/11/15 02:35:54;;;;;;;11.52;5.40;;;;;;;8.00;97.07;97823.34;5072003;28;20376;-82
2023/11/15 02:38:19;;;;;;;8.73;5.82;;;;;;;8.05;97.01;97830.56;5070374;28;20372;-82
2023/11/15 02:40:45;;;;;;;10.98;5.07;;;;;;;8.05;96.78;97841.19;5081876;28;20036;-82
2023/11/15 02:43:14;;;;;;;9.65;5.53;;;;;;;8.07;97.38;97847.03;5083273;28;20020;-82
2023/11/15 02:45:40;;;;;;;11.73;5.40;;;;;;;8.13;96.65;97856.63;5081236;28;20040;-82
2023/11/15 02:48:05;;;;;;;11.85;5.30;;;;;;;8.05;96.91;97851.81;5083495;28;20111;-83
2023/11/15 02:50:31;;;;;;;8.02;5.10;;;;;;;8.11;96.62;97856.09;5079880;28;20225;-83
2023/11/15 02:52:57;;;;;;;9.35;5.53;;;;;;;8.09;96.46;97855.56;5062717;28;20119;-83
2023/11/15 02:55:23;;;;;;;9.10;5.18;;;;;;;8.17;96.21;97866.50;5069824;28;20051;-82
2023/11/15 02:57:48;;;;;;;14.23;6.38;;;;;;;8.11;96.40;97861.41;5085535;28;20032;-82
2023/11/15 03:00:14;;;;;;;14.00;6.20;;;;;;;8.14;96.17;97866.22;5065303;28;20122;-83
2023/11/15 03:02:39;;;;;;;14.45;7.60;;;;;;;8.12;96.21;97869.16;5071193;28;20039;-82
2023/11/15 03:05:06;;;;;;;9.70;5.55;;;;;;;8.03;96.51;97881.31;5083494;28;20057;-83
2023/11/15 03:07:31;;;;;;;14.38;6.00;;;;;;;7.98;97.22;97861.88;5076542;28;20562;-82
2023/11/15 03:09:57;;;;;;;20.15;7.80;;;;;;;8.08;97.16;97885.88;5081682;28;20162;-82
2023/11/15 03:12:22;;;;;;;15.80;6.15;;;;;;;8.07;97.12;97878.94;5080093;28;20073;-82
2023/11/15 03:14:47;;;;;;;16.52;7.68;;;;;;;8.02;97.09;97877.03;5066869;28;20047;-82
2023/11/15 03:17:15;;;;;;;11.90;6.10;;;;;;;7.97;97.48;97892.16;5063960;28;20402;-82
2023/11/15 03:19:41;;;;;;;9.93;7.50;;;;;;;7.95;97.58;97892.41;5070218;28;20027;-82
2023/11/15 03:22:06;;;;;;;16.80;6.43;;;;;;;8.06;96.99;97898.59;5078130;28;20031;-82
2023/11/15 03:24:31;;;;;;;12.68;6.93;;;;;;;8.20;95.85;97910.38;5099417;28;20028;-83
2023/11/15 03:26:57;;;;;;;12.48;6.90;;;;;;;8.08;96.20;97913.22;5080771;28;20388;-81
2023/11/15 03:29:22;;;;;;;13.45;6.40;;;;;;;8.12;96.13;97926.81;5085766;28;20377;-82
2023/11/15 03:31:47;;;;;;;11.25;6.03;;;;;;;8.00;96.95;97926.19;5068976;28;20123;-82
2023/11/15 03:34:13;;;;;;;12.57;6.97;;;;;;;8.09;95.85;97927.31;5073663;28;20116;-82
2023/11/15 03:36:40;;;;;;;10.02;6.28;;;;;;;7.99;96.49;97932.56;5065882;28;20507;-82
2023/11/15 03:39:08;;;;;;;17.88;6.97;;;;;;;8.03;96.68;97946.94;5055143;28;20020;-82
2023/11/15 03:41:34;;;;;;;9.15;5.90;;;;;;;7.85;96.98;97937.50;5085485;28;20039;-82
2023/11/15 03:44:00;;;;;;;12.02;6.25;;;;;;;8.00;96.48;97940.28;5081093;28;20039;-82
2023/11/15 03:46:26;;;;;;;12.75;5.13;;;;;;;8.10;95.81;97958.16;5079331;28;20020;-82
2023/11/15 03:48:52;;;;;;;14.25;6.50;;;;;;;8.16;95.79;97955.28;5079918;28;20221;-82
2023/11/15 03:51:17;;;;;;;14.70;6.57;;;;;;;8.06;95.91;97954.41;5081747;28;20144;-82
2023/11/15 03:53:43;;;;;;;17.75;7.35;;;;;;;8.06;95.85;97962.38;5074747;28;20046;-82
2023/11/15 03:56:09;;;;;;;18.67;6.15;;;;;;;8.04;95.20;97959.16;5082325;28;20503;-82
2023/11/15 03:58:34;;;;;;;10.45;6.45;;;;;;;8.00;95.75;97981.97;5077520;28;20188;-82
2023/11/15 04:01:00;;;;;;;19.70;6.60;;;;;;;8.09;95.23;97978.63;5062622;28;20488;-81
2023/11/15 04:03:26;;;;;;;11.25;5.35;;;;;;;8.02;95.38;97978.03;5064423;28;20036;-82
2023/11/15 04:05:52;;;;;;;9.55;5.30;;;;;;;8.01;95.52;97988.91;5078052;28;20028;-82
2023/11/15 04:08:17;;;;;;;9.25;5.82;;;;;;;7.99;95.82;98002.47;5074286;28;20024;-82
2023/11/15 04:10:43;;;;;;;13.50;5.90;;;;;;;8.03;95.41;97984.94;5080483;28;20036;-82
2023/11/15 04:13:09;;;;;;;10.30;5.15;;;;;;;8.10;94.66;97993.50;5076332;28;20024;-82
2023/11/15 04:15:37;;;;;;;16.27;5.72;;;;;;;7.96;94.60;97984.34;5075033;28;20381;-82
2023/11/15 04:18:03;;;;;;;12.63;5.25;;;;;;;7.96;94.71;97991.50;5078325;28;20043;-82
2023/11/15 04:20:30;;;;;;;8.80;5.07;;;;;;;7.90;95.46;97998.66;5046263;28;20063;-81
2023/11/15 04:22:56;;;;;;;10.48;4.95;;;;;;;8.01;95.45;98002.19;5082769;28;20043;-82
2023/11/15 04:25:22;;;;;;;13.40;4.93;;;;;;;7.98;95.36;98008.00;5062405;28;20028;-83
2023/11/15 04:27:47;;;;;;;12.15;5.05;;;;;;;7.84;95.74;98004.94;5079416;28;20031;-82
2023/11/15 04:30:13;;;;;;;9.18;4.97;;;;;;;7.94;95.42;98013.03;5075419;28;20128;-82
2023/11/15 04:32:41;;;;;;;7.40;5.20;;;;;;;7.91;95.35;98002.91;5064832;28;20154;-83
2023/11/15 04:35:07;;;;;;;9.40;4.43;;;;;;;7.95;94.70;98011.19;5075390;28;20032;-82
2023/11/15 04:37:35;;;;;;;14.13;4.20;;;;;;;8.02;94.76;98014.41;5076886;28;20028;-82
2023/11/15 04:40:00;;;;;;;13.27;4.10;;;;;;;7.91;94.48;98029.47;5069572;28;20116;-82
2023/11/15 04:42:26;;;;;;;12.23;5.43;;;;;;;7.93;94.78;98031.88;5087256;28;20167;-82
2023/11/15 04:44:52;;;;;;;10.20;4.55;;;;;;;8.03;94.68;98030.13;5079426;28;20036;-83
2023/11/15 04:47:17;;;;;;;9.95;4.18;;;;;;;7.98;95.04;98027.41;5078461;28;20028;-83
2023/11/15 04:49:43;;;;;;;8.52;3.63;;;;;;;7.99;94.94;98029.03;5076158;28;20503;-83
2023/11/15 04:52:09;;;;;;;8.38;4.18;;;;;;;8.01;95.20;98031.44;5075513;28;20103;-82
2023/11/15 04:54:34;;;;;;;15.65;3.92;;;;;;;7.87;95.78;98031.03;5074098;28;20036;-82
2023/11/15 04:57:00;;;;;;;9.23;3.60;;;;;;;7.87;96.06;98036.34;5078478;28;20028;-84
2023/11/15 04:59:25;;;;;;;6.75;3.63;;;;;;;7.95;95.72;98057.13;5072282;28;20028;-84
2023/11/15 05:01:51;;;;;;;9.75;4.35;;;;;;;7.94;96.16;98057.38;5079414;28;20024;-84
2023/11/15 05:04:16;;;;;;;6.72;2.97;;;;;;;7.72;96.77;98043.34;5051995;28;20024;-84
2023/11/15 05:06:42;;;;;;;15.15;4.13;;;;;;;7.92;96.56;98057.66;5079382;28;20143;-84
2023/11/15 05:09:08;;;;;;;5.28;2.30;;;;;;;7.92;96.50;98062.16;5080691;28;20142;-84
2023/11/15 05:11:34;;;;;;;8.32;2.45;;;;;;;7.72;96.78;98049.47;5075767;28;20024;-83
2023/11/15 05:14:00;;;;;;;3.40;1.83;;;;;;;7.95;96.40;98074.94;5074922;28;20052;-82
2023/11/15 05:16:28;;;;;;;5.15;1.88;;;;;;;7.91;95.77;98079.13;5071025;28;20123;-83
2023/11/15 05:18:53;;;;;;;3.90;1.80;;;;;;;7.68;97.46;98080.22;5058384;28;20121;-82
2023/11/15 05:21:18;;;;;;;3.38;1.73;;;;;;;7.73;96.88;98077.63;5062335;28;20021;-83
2023/11/15 05:23:44;;;;;;;3.25;1.70;;;;;;;7.96;95.94;98076.53;5065614;28;20170;-84
2023/11/15 05:26:09;;;;;;;6.68;2.13;;;;;;;7.94;95.54;98083.97;5069153;28;20024;-84
2023/11/15 05:28:34;;;;;;;3.95;2.28;;;;;;;8.07;95.80;98088.88;5085262;28;20032;-84
2023/11/15 05:31:01;;;;;;;3.83;2.47;;;;;;;7.94;95.67;98090.09;5085857;28;20036;-83
2023/11/15 05:33:26;;;;;;;3.97;2.55;;;;;;;8.00;95.44;98093.59;5085516;28;20024;-83
2023/11/15 05:35:51;;;;;;;5.50;3.08;;;;;;;7.99;95.94;98092.00;5071148;28;20544;-83
2023/11/15 05:38:18;;;;;;;4.97;2.95;;;;;;;7.98;96.24;98093.03;5068818;28;20483;-82
2023/11/15 05:40:44;;;;;;;6.55;4.20;;;;;;;8.03;95.12;98099.22;5077821;28;20028;-82
2023/11/15 05:43:09;;;;;;;5.07;3.40;;;;;;;8.06;95.47;98111.97;5082587;28;20557;-82
2023/11/15 05:45:35;;;;;;;5.28;3.63;;;;;;;8.04;95.55;98111.44;5073056;28;20035;-82
2023/11/15 05:48:00;;;;;;;5.85;3.40;;;;;;;7.93;96.45;98107.06;5066629;28;20369;-82
2023/11/15 05:50:26;;;;;;;7.03;4.07;;;;;;;8.02;95.79;98112.72;5086796;28;20028;-82
2023/11/15 05:52:52;;;;;;;5.82;3.58;;;;;;;8.04;94.83;98116.75;5081709;28;20560;-82
2023/11/15 05:55:18;;;;;;;7.30;4.10;;;;;;;8.00;96.02;98117.50;5084542;28;20049;-82
2023/11/15 05:57:44;;;;;;;5.22;3.15;;;;;;;8.05;95.76;98130.84;5079281;28;20070;-82
2023/11/15 06:00:20;;;;;;;7.72;4.45;;;;;;;7.96;95.39;98121.72;5069712;28;20028;-81
2023/11/15 06:02:47;;;;;;;;;;;;;;;7.92;96.24;98136.53;5069313;28;20031;-82
2023/11/15 06:05:13;;;;;;;7.22;4.50;;;;;;;7.82;97.17;98144.41;5065492;28;20330;-83
2023/11/15 06:07:38;;;;;;;8.88;3.60;;;;;;;7.89;96.73;98145.00;5083362;28;20028;-83
2023/11/15 06:10:04;;;;;;;6.53;3.67;;;;;;;7.96;96.37;98138.47;5084326;28;20063;-82
2023/11/15 06:12:29;;;;;;;4.95;3.88;;;;;;;7.94;96.43;98129.94;5089922;28;20447;-83
2023/11/15 06:14:54;;;;;;;6.90;3.70;;;;;;;8.00;96.07;98141.41;5084574;28;20042;-82
2023/11/15 06:17:20;;;;;;;5.50;3.75;;;;;;;7.95;95.71;98152.00;5088430;28;20110;-83
2023/11/15 06:19:45;;;;;;;11.27;4.35;;;;;;;7.99;95.80;98161.88;5088105;28;20448;-83
2023/11/15 06:22:11;;;;;;;5.70;3.55;;;;;;;7.85;96.99;98165.16;5079169;28;20047;-83
2023/11/15 06:24:40;;;;;;;7.20;3.38;;;;;;;7.94;96.07;98153.84;5082393;28;20081;-82
2023/11/15 06:27:07;;;;;;;4.43;3.42;;;;;;;7.94;96.65;98158.34;5079125;28;20488;-82
2023/11/15 06:29:33;;;;;;;5.53;3.15;;;;;;;7.84;96.69;98152.94;5102007;28;20036;-82
2023/11/15 06:31:59;;;;;;;5.78;3.45;;;;;;;8.07;95.86;98157.97;5076566;28;20024;-83
2023/11/15 06:34:24;;;;;;;4.90;3.17;;;;;;;8.04;95.96;98166.44;5078232;28;20025;-83
2023/11/15 06:36:49;;;;;;;8.80;3.33;;;;;;;8.15;95.34;98166.31;5085332;28;20042;-84
2023/11/15 06:39:18;;;;;;;6.82;3.42;;;;;;;8.11;95.10;98183.81;5068051;28;20410;-83
2023/11/15 06:41:43;;;;;;;6.15;3.35;;;;;;;8.10;95.50;98170.78;5087154;28;20404;-84
2023/11/15 06:44:09;;;;;;;6.25;3.20;;;;;;;8.10;95.07;98179.53;5070214;28;20024;-84
2023/11/15 06:46:38;;;;;;;4.70;2.92;;;;;;;7.94;95.28;98176.94;5090000;28;20584;-84
2023/11/15 06:49:05;;;;;;;6.30;3.58;;;;;;;8.02;95.18;98166.69;5085809;28;20473;-83
2023/11/15 06:51:31;;;;;;;3.67;2.60;;;;;;;7.93;95.26;98180.69;5087164;28;20405;-83
2023/11/15 06:53:56;;;;;;;3.72;2.50;;;;;;;7.89;95.91;98174.22;5085525;28;20020;-83
2023/11/15 06:56:21;;;;;;;3.13;2.50;;;;;;;7.87;96.15;98193.09;5083881;28;20089;-82
2023/11/15 06:58:47;;;;;;;3.28;1.90;;;;;;;7.90;96.08;98194.44;5075337;28;21564;-82
2023/11/15 07:01:12;;;;;;;3.42;2.40;;;;;;;7.88;95.67;98209.84;5056205;28;20408;-83
2023/11/15 07:03:43;;;;;;;2.00;1.63;;;;;;;7.95;95.90;98205.16;5076979;28;20047;-82
2023/11/15 07:06:08;;;;;;;3.58;2.47;;;;;;;7.87;95.86;98208.22;5076998;28;20495;-82
2023/11/15 07:08:34;;;;;;;4.10;2.88;;;;;;;7.96;95.60;98212.06;5072209;28;20031;-82
2023/11/15 07:11:01;;;;;;;3.75;3.35;;;;;;;7.87;95.66;98222.31;5067316;28;20051;-82
2023/11/15 07:13:27;;;;;;;4.35;2.75;;;;;;;8.01;95.16;98217.44;5074780;28;20116;-83
2023/11/15 07:15:53;;;;;;;5.32;3.08;;;;;;;8.02;95.36;98229.66;5086091;28;20036;-82
2023/11/15 07:18:21;;;;;;;4.88;3.60;;;;;;;8.02;95.57;98229.66;5086198;28;20028;-82
2023/11/15 07:20:47;;;;;;;6.28;3.97;;;;;;;7.85;95.75;98231.56;5089932;28;20111;-82
2023/11/15 07:23:13;;;;;;;4.20;3.53;;;;;;;7.98;95.23;98233.84;5080030;28;20169;-82
2023/11/15 07:25:38;;;;;;;6.32;4.10;;;;;;;8.04;95.32;98251.47;5068266;28;20392;-82
2023/11/15 07:28:04;;;;;;;8.30;3.67;;;;;;;7.94;95.58;98241.53;5064699;28;20131;-82
2023/11/15 07:30:31;;;;;;;7.05;4.25;;;;;;;8.02;95.15;98257.03;5081574;28;20031;-82
2023/11/15 07:32:57;;;;;;;8.27;4.55;;;;;;;8.05;95.28;98251.25;5091829;28;20032;-82
2023/11/15 07:35:25;;;;;;;7.85;4.13;;;;;;;8.12;95.03;98257.19;5067435;28;20694;-83
2023/11/15 07:37:51;;;;;;;7.65;4.00;;;;;;;8.08;94.89;98268.56;5071565;28;20028;-83
2023/11/15 07:40:16;;;;;;;10.45;4.03;;;;;;;8.15;94.25;98271.81;5071331;28;20039;-83
2023/11/15 07:42:42;;;;;;;5.50;3.83;;;;;;;8.12;94.63;98261.69;5088262;28;20028;-82
2023/11/15 07:45:11;;;;;;;5.38;4.22;;;;;;;7.97;95.66;98264.94;5073895;28;20051;-82
2023/11/15 07:47:37;;;;;;;5.82;3.50;;;;;;;8.17;95.47;98286.47;5081192;28;20028;-84
2023/11/15 07:50:03;;;;;;;4.07;3.42;;;;;;;8.11;95.48;98291.97;5070464;28;20032;-84
2023/11/15 07:52:32;;;;;;;7.40;3.47;;;;;;;8.12;95.47;98286.44;5085781;28;20039;-83
2023/11/15 07:54:58;;;;;;;4.40;3.55;;;;;;;8.10;95.77;98285.84;5086191;28;20686;-83
2023/11/15 07:57:24;;;;;;;4.93;3.15;;;;;;;8.13;95.79;98295.19;5083180;28;20046;-83
2023/11/15 07:59:50;;;;;;;5.35;3.78;;;;;;;8.10;95.26;98303.66;5084225;28;20020;-83
2023/11/15 08:02:16;;;;;;;5.38;3.45;;;;;;;7.96;96.29;98291.75;5082079;28;20660;-83
2023/11/15 08:04:42;;;;;;;6.13;3.55;;;;;;;7.92;96.82;98286.16;5087242;28;20054;-82
2023/11/15 08:07:07;;;;;;;3.90;3.53;;;;;;;7.94;96.39;98291.22;5086696;28;20507;-82
2023/11/15 08:09:33;;;;;;;4.63;3.30;;;;;;;8.16;96.14;98302.66;5054219;28;20035;-83
2023/11/15 08:12:00;;;;;;;5.45;3.65;;;;;;;8.01;95.55;98295.31;5088175;28;20063;-82
2023/11/15 08:14:26;;;;;;;5.45;3.70;;;;;;;8.07;95.85;98298.81;5068674;28;20422;-82
2023/11/15 08:16:53;;;;;;;9.57;3.85;;;;;;;8.12;95.87;98310.34;5072138;28;20053;-82
2023/11/15 08:19:18;;;;;;;4.63;3.45;;;;;;;7.99;96.31;98293.94;5088991;28;20059;-82
2023/11/15 08:21:44;;;;;;;5.03;3.00;;;;;;;8.10;95.42;98315.06;5085263;28;20056;-83
2023/11/15 08:24:13;;;;;;;3.03;2.67;;;;;;;8.00;95.75;98304.31;5067578;28;20035;-82
2023/11/15 08:26:39;;;;;;;4.75;3.22;;;;;;;8.13;95.98;98316.44;5065114;28;20093;-82
2023/11/15 08:29:05;;;;;;;6.05;3.38;;;;;;;8.02;95.42;98323.47;5081441;28;20012;-82
2023/11/15 08:31:33;;;;;;;3.35;3.00;;;;;;;8.11;95.34;98318.53;5068394;28;20423;-82
2023/11/15 08:33:58;;;;;;;3.88;2.97;;;;;;;8.04;95.24;98321.38;5089925;28;20811;-83
2023/11/15 08:36:24;;;;;;;3.55;2.70;;;;;;;8.09;95.15;98336.59;5085007;28;20124;-83
2023/11/15 08:38:50;;;;;;;5.55;3.42;;;;;;;8.05;94.99;98335.47;5088466;28;20036;-82
2023/11/15 08:41:16;;;;;;;4.20;2.10;;;;;;;8.05;94.88;98346.09;5084484;28;20058;-83
2023/11/15 08:43:46;;;;;;;3.13;2.78;;;;;;;7.98;94.85;98354.25;5073668;28;20050;-82
2023/11/15 08:46:16;;;;;;;9.63;3.05;;;;;;;7.91;94.90;98329.69;5073282;28;20563;-83
2023/11/15 08:48:44;;;;;;;4.10;2.28;;;;;;;7.87;94.92;98343.72;5092763;28;20043;-83
2023/11/15 08:51:10;;;;;;;4.78;2.05;;;;;;;7.98;95.49;98356.09;5093142;28;20024;-83
2023/11/15 08:53:37;;;;;;;5.18;2.50;;;;;;;7.92;94.74;98346.44;5095012;28;20024;-83
2023/11/15 08:56:07;;;;;;;4.13;1.65;;;;;;;8.01;94.79;98366.25;5070802;28;20499;-83
2023/11/15 08:58:37;;;;;;;1.80;1.70;;;;;;;8.03;95.03;98372.13;5054916;28;20584;-82
2023/11/15 09:01:09;;;;;;;1.38;1.27;;;;;;;7.83;95.22;98350.56;5062235;28;20147;-83
2023/11/15 09:03:34;;;;;;;1.67;1.58;;;;;;;7.99;95.59;98371.81;5092441;28;20605;-82
2023/11/15 09:06:00;;;;;;;1.85;1.45;;;;;;;7.94;95.12;98357.63;5079473;28;20070;-83
2023/11/15 09:08:25;;;;;;;2.33;1.55;;;;;;;8.01;95.02;98380.34;5072316;28;20581;-82
2023/11/15 09:10:51;;;;;;;3.90;1.58;;;;;;;8.02;94.71;98391.75;5069027;28;20040;-82
2023/11/15 09:13:18;;;;;;;1.70;1.60;;;;;;;8.00;94.67;98383.22;5086993;28;20028;-82
2023/11/15 09:15:46;;;;;;;2.88;1.30;;;;;;;7.89;95.23;98392.91;5073124;28;20039;-82
2023/11/15 09:18:14;;;;;;;1.95;1.73;;;;;;;7.98;95.47;98401.28;5093161;28;20570;-83
2023/11/15 09:20:41;;;;;;;1.63;1.52;;;;;;;8.03;95.12;98390.72;5083905;28;20067;-83
2023/11/15 09:23:08;;;;;;;1.38;1.30;;;;;;;8.06;95.17;98401.66;5077469;28;20024;-83
2023/11/15 09:25:35;;;;;;;2.88;1.40;;;;;;;8.06;94.50;98401.66;5087767;28;20066;-83
2023/11/15 09:28:05;;;;;;;1.50;1.13;;;;;;;7.99;95.42;98397.56;5090030;28;20016;-83
2023/11/15 09:30:31;;;;;;;1.13;1.13;;;;;;;7.94;94.55;98398.31;5087996;28;20059;-82
2023/11/15 09:32:57;;;;;;;2.42;1.40;;;;;;;7.96;95.18;98400.72;5080918;28;20035;-82
2023/11/15 09:35:27;;;;;;;1.60;1.13;;;;;;;7.83;94.65;98391.22;5065678;28;20047;-82
2023/11/15 09:37:53;;;;;;;1.27;1.17;;;;;;;8.00;94.46;98407.16;5090120;28;20063;-82
2023/11/15 09:40:20;;;;;;;1.55;1.45;;;;;;;7.92;94.76;98404.91;5092475;28;20020;-82
2023/11/15 09:42:51;;;;;;;2.95;1.63;;;;;;;7.98;94.85;98403.94;5080484;28;20153;-82
2023/11/15 09:45:18;;;;;;;1.67;1.10;;;;;;;8.03;95.00;98407.47;5082031;28;20365;-83
2023/11/15 09:47:47;;;;;;;1.50;1.23;;;;;;;7.95;94.55;98405.22;5089309;28;20087;-83
2023/11/15 09:50:15;;;;;;;1.50;1.38;;;;;;;8.04;94.99;98408.28;5084677;28;20031;-82
2023/11/15 09:52:40;;;;;;;1.42;1.33;;;;;;;7.99;94.53;98405.56;5089198;28;20369;-83
2023/11/15 09:55:07;;;;;;;1.45;1.10;;;;;;;7.91;94.83;98403.28;5079132;28;20028;-82
2023/11/15 09:57:33;;;;;;;1.63;1.42;;;;;;;8.02;94.50;98423.66;5080492;28;20028;-82
2023/11/15 09:59:59;;;;;;;2.08;1.40;;;;;;;7.94;94.94;98424.88;5089914;28;20384;-81
2023/11/15 10:02:28;;;;;;;1.38;1.27;;;;;;;7.97;95.23;98420.94;5077306;28;20032;-82
2023/11/15 10:05:19;;;;;;;1.35;1.25;;;;;;;8.02;94.77;98439.59;5066092;28;20032;-82
2023/11/15 10:07:48;;;;;;;1.92;1.30;;;;;;;8.04;94.82;98432.19;5090411;28;20433;-82
2023/11/15 10:10:19;;;;;;;2.22;1.55;;;;;;;7.98;95.70;98428.66;5088090;28;20047;-83
2023/11/15 10:12:49;;;;;;;1.63;1.38;;;;;;;8.11;94.79;98432.84;5082430;28;20582;-82
2023/11/15 10:15:18;;;;;;;1.83;1.45;;;;;;;8.12;95.10;98421.16;5086307;28;20034;-82
2023/11/15 10:17:44;;;;;;;2.38;1.63;;;;;;;8.08;95.49;98434.13;5088318;28;20093;-82
2023/11/15 10:20:18;;;;;;;2.78;1.73;;;;;;;8.19;94.92;98414.63;5084597;28;20032;-82
2023/11/15 10:22:47;;;;;;;1.98;1.52;;;;;;;8.15;94.87;98412.69;5089553;28;20028;-82
2023/11/15 10:25:14;;;;;;;1.65;1.40;;;;;;;8.21;95.00;98415.19;5087257;28;20056;-82
2023/11/15 10:27:40;;;;;;;1.55;1.45;;;;;;;8.17;95.16;98407.94;5089620;28;20058;-82
2023/11/15 10:30:12;;;;;;;1.60;1.20;;;;;;;8.23;95.54;98412.31;5093171;28;20024;-82
2023/11/15 10:32:40;;;;;;;1.65;1.55;;;;;;;8.26;94.67;98414.47;5067277;28;20107;-82
2023/11/15 10:35:08;;;;;;;1.67;1.58;;;;;;;8.26;94.68;98411.81;5068100;28;20115;-82
2023/11/15 10:37:46;;;;;;;2.58;1.48;;;;;;;8.31;94.57;98417.22;5084380;28;20040;-82
2023/11/15 10:40:11;;;;;;;1.42;1.33;;;;;;;8.33;94.18;98428.41;5086161;28;20031;-82
2023/11/15 10:42:38;;;;;;;1.40;1.30;;;;;;;8.32;95.08;98432.16;5079849;28;21708;-81
2023/11/15 10:45:08;;;;;;;2.60;1.40;;;;;;;8.38;94.77;98433.81;5061686;28;20033;-82
2023/11/15 10:47:35;;;;;;;2.25;1.42;;;;;;;8.40;94.95;98452.19;5084325;28;20026;-81
2023/11/15 10:50:08;;;;;;;1.92;1.73;;;;;;;8.40;94.88;98449.53;5089313;28;20077;-82
2023/11/15 10:52:34;;;;;;;2.75;1.58;;;;;;;8.32;95.07;98442.78;5067421;28;20042;-83
2023/11/15 10:55:01;;;;;;;4.82;2.20;;;;;;;8.20;94.96;98434.84;5070229;28;20042;-84
2023/11/15 10:57:30;;;;;;;1.70;1.55;;;;;;;8.25;95.24;98453.56;5089332;28;20433;-83
2023/11/15 10:59:58;;;;;;;2.65;2.13;;;;;;;8.19;95.61;98448.41;5077826;28;20127;-83
2023/11/15 11:02:27;;;;;;;7.82;2.60;;;;;;;8.20;94.91;98447.34;5084784;28;20031;-83
2023/11/15 11:04:54;;;;;;;2.28;2.08;;;;;;;8.17;95.28;98445.97;5084134;28;20024;-83
2023/11/15 11:07:57;;;;;;;3.40;2.13;;;;;;;8.22;95.58;98458.53;5057365;28;20024;-83
2023/11/15 11:10:57;;;;;;;3.47;1.85;;;;;;;8.17;94.71;98461.09;5088017;28;20024;-83
2023/11/15 11:13:23;;;;;;;2.85;2.50;;;;;;;8.12;95.15;98464.50;5069804;28;20437;-83
2023/11/15 11:15:49;;;;;;;4.50;2.45;;;;;;;8.07;95.47;98476.91;5067140;28;20111;-83
2023/11/15 11:18:16;;;;;;;3.53;2.20;;;;;;;8.17;95.03;98471.72;5081194;28;20059;-83
2023/11/15 11:21:00;;;;;;;5.00;2.30;;;;;;;8.12;95.71;98480.47;5080103;28;20596;-83
2023/11/15 11:23:26;;;;;;;3.25;2.08;;;;;;;8.07;95.50;98468.91;5082568;28;20464;-83
2023/11/15 11:25:56;;;;;;;3.90;2.15;;;;;;;8.07;94.86;98455.63;5086228;28;20467;-83
2023/11/15 11:28:22;;;;;;;4.78;1.90;;;;;;;8.00;94.87;98461.09;5082659;28;20024;-82
2023/11/15 11:31:19;;;;;;;2.33;2.08;;;;;;;8.04;94.86;98461.41;5069621;28;20025;-83
2023/11/15 11:34:10;;;;;;;3.05;1.80;;;;;;;8.09;95.18;98464.97;5083736;28;20031;-83
2023/11/15 11:36:53;;;;;;;2.50;1.77;;;;;;;8.11;94.91;98470.03;5078237;28;20031;-83
2023/11/15 11:39:47;;;;;;;2.38;1.83;;;;;;;8.08;95.28;98478.53;5083624;28;20060;-83
2023/11/15 11:42:25;;;;;;;2.53;1.83;;;;;;;8.09;95.19;98480.94;5081575;28;20036;-83